createdAt,value
2018-11-14T00:03:52.919Z,82.73
2018-11-14T00:08:46.406Z,82.58
2018-11-14T00:13:39.785Z,82.91
2018-11-14T00:18:33.284Z,81.72
2018-11-14T00:23:26.718Z,81.66
2018-11-14T00:28:20.178Z,81.45
2018-11-14T00:33:14.089Z,81.95
2018-11-14T00:38:07.181Z,82.14
2018-11-14T00:43:02.716Z,82.55
2018-11-14T00:47:56.200Z,84.17
2018-11-14T00:52:49.612Z,84.30
2018-11-14T00:57:44.247Z,84.24
2018-11-14T01:02:37.982Z,84.01
2018-11-14T01:07:31.556Z,83.27
2018-11-14T01:12:25.024Z,83.88
2018-11-14T01:17:18.486Z,83.74
2018-11-14T01:22:11.883Z,84.66
2018-11-14T01:27:05.474Z,85.01
2018-11-14T01:31:58.851Z,84.81
2018-11-14T01:36:52.661Z,83.89
2018-11-14T01:41:46.172Z,83.79
2018-11-14T01:46:39.570Z,83.55
2018-11-14T01:51:33.075Z,84.18
2018-11-14T01:56:26.942Z,84.23
2018-11-14T02:01:20.361Z,83.46
2018-11-14T02:06:13.809Z,83.13
2018-11-14T02:11:07.334Z,83.85
2018-11-14T02:16:00.879Z,83.38
2018-11-14T02:20:54.260Z,83.47
2018-11-14T02:25:47.749Z,83.56
2018-11-14T02:30:41.190Z,83.81
2018-11-14T02:35:34.637Z,83.43
2018-11-14T02:40:28.196Z,83.37
2018-11-14T02:45:21.651Z,84.29
2018-11-14T02:50:16.312Z,84.03
2018-11-14T02:55:11.191Z,82.71
2018-11-14T03:00:05.329Z,82.04
2018-11-14T03:04:58.830Z,82.10
2018-11-14T03:09:52.292Z,82.49
2018-11-14T03:14:45.744Z,82.37
2018-11-14T03:19:39.069Z,83.24
2018-11-14T03:24:32.745Z,83.14
2018-11-14T03:29:26.160Z,80.53
2018-11-14T03:34:19.535Z,80.92
2018-11-14T03:39:13.027Z,80.26
2018-11-14T03:44:06.927Z,81.37
2018-11-14T03:49:00.286Z,80.76
2018-11-14T03:53:53.752Z,81.54
2018-11-14T03:58:47.308Z,80.41
2018-11-14T04:03:40.712Z,79.68
2018-11-14T04:08:34.112Z,79.99
2018-11-14T04:13:27.647Z,79.99
2018-11-14T04:18:21.022Z,81.82
2018-11-14T04:23:14.385Z,82.92
2018-11-14T04:28:07.804Z,82.81
2018-11-14T04:33:01.416Z,82.20
2018-11-14T04:37:54.890Z,81.07
2018-11-14T04:42:48.362Z,80.06
2018-11-14T04:47:42.148Z,80.03
2018-11-14T04:52:35.580Z,80.80
2018-11-14T04:57:29.063Z,81.19
2018-11-14T05:02:22.400Z,81.35
2018-11-14T05:07:16.066Z,81.40
2018-11-14T05:12:09.486Z,82.17
2018-11-14T05:17:03.032Z,81.96
2018-11-14T05:21:56.584Z,80.89
2018-11-14T05:26:49.987Z,79.68
2018-11-14T05:31:43.493Z,78.44
2018-11-14T05:36:36.936Z,78.80
2018-11-14T05:41:30.481Z,79.78
2018-11-14T05:46:23.911Z,81.60
2018-11-14T05:51:17.305Z,81.02
2018-11-14T05:56:10.827Z,79.77
2018-11-14T06:01:04.673Z,78.66
2018-11-14T06:05:58.093Z,78.04
2018-11-14T06:10:51.592Z,78.98
2018-11-14T06:15:45.230Z,79.13
2018-11-14T06:20:38.677Z,79.22
2018-11-14T06:25:34.481Z,78.29
2018-11-14T06:30:28.149Z,77.30
2018-11-14T06:35:21.901Z,76.88
2018-11-14T06:40:15.357Z,76.25
2018-11-14T06:45:11.775Z,74.27
2018-11-14T06:50:06.592Z,74.60
2018-11-14T06:55:00.124Z,73.75
2018-11-14T06:59:53.723Z,73.20
2018-11-14T07:04:51.787Z,73.76
2018-11-14T07:09:45.322Z,72.90
2018-11-14T07:14:38.826Z,71.87
2018-11-14T07:19:32.383Z,72.61
2018-11-14T07:24:25.930Z,71.73
2018-11-14T07:29:19.329Z,71.22
2018-11-14T07:34:12.698Z,70.92
2018-11-14T07:39:09.353Z,71.58
2018-11-14T07:44:06.528Z,71.99
2018-11-14T07:49:00.223Z,72.39
2018-11-14T07:53:53.699Z,72.29
2018-11-14T07:58:47.369Z,72.09
2018-11-14T08:03:40.915Z,71.77
2018-11-14T08:08:34.348Z,71.19
2018-11-14T08:13:29.049Z,71.83
2018-11-14T08:18:22.839Z,72.08
2018-11-14T08:23:16.441Z,72.15
2018-11-14T08:28:09.996Z,70.63
2018-11-14T08:33:03.713Z,69.57
2018-11-14T08:37:57.205Z,70.93
2018-11-14T08:42:50.736Z,69.35
2018-11-14T08:47:44.228Z,70.54
2018-11-14T08:52:37.897Z,69.77
2018-11-14T08:57:31.314Z,70.55
2018-11-14T09:02:24.790Z,68.92
2018-11-14T09:07:18.335Z,68.38
2018-11-14T09:12:12.049Z,68.98
2018-11-14T09:17:06.007Z,68.23
2018-11-14T09:22:00.113Z,68.27
2018-11-14T09:26:53.617Z,68.17
2018-11-14T09:31:47.207Z,66.69
2018-11-14T09:36:40.601Z,68.88
2018-11-14T09:41:34.477Z,66.45
2018-11-14T09:46:27.991Z,66.37
2018-11-14T09:51:21.450Z,66.70
2018-11-14T09:56:15.255Z,66.12
2018-11-14T10:01:08.700Z,66.09
2018-11-14T10:06:02.193Z,65.71
2018-11-14T10:10:55.851Z,65.10
2018-11-14T10:15:49.337Z,64.80
2018-11-14T10:20:42.762Z,64.74
2018-11-14T10:25:36.196Z,64.79
2018-11-14T10:30:29.897Z,63.39
2018-11-14T10:35:23.408Z,63.12
2018-11-14T10:40:22.021Z,63.84
2018-11-14T10:45:17.128Z,64.01
2018-11-14T10:50:13.508Z,63.95
2018-11-14T10:55:07.860Z,62.89
2018-11-14T11:00:01.465Z,63.36
2018-11-14T11:05:00.352Z,64.54
2018-11-14T11:09:59.338Z,64.41
2018-11-14T11:14:58.299Z,64.12
2018-11-14T11:19:51.894Z,63.47
2018-11-14T11:24:45.488Z,61.98
2018-11-14T11:29:38.947Z,62.66
2018-11-14T11:34:32.447Z,61.69
2018-11-14T11:39:26.148Z,62.33
2018-11-14T11:44:19.819Z,62.70
2018-11-14T11:49:13.416Z,62.55
2018-11-14T11:54:07.443Z,62.80
2018-11-14T11:59:01.094Z,62.44
2018-11-14T12:03:54.655Z,63.84
2018-11-14T12:08:48.202Z,63.44
2018-11-14T12:13:41.817Z,64.12
2018-11-14T12:18:35.333Z,63.63
2018-11-14T12:23:29.118Z,63.62
2018-11-14T12:28:22.746Z,63.92
2018-11-14T12:33:16.414Z,63.95
2018-11-14T12:38:10.082Z,64.15
2018-11-14T12:43:03.645Z,63.43
2018-11-14T12:47:57.040Z,63.59
2018-11-14T12:52:50.663Z,63.01
2018-11-14T12:57:44.108Z,63.63
2018-11-14T13:02:40.069Z,63.48
2018-11-14T13:07:33.587Z,66.38
2018-11-14T13:12:27.072Z,62.71
2018-11-14T13:17:20.756Z,62.34
2018-11-14T13:22:15.738Z,62.93
2018-11-14T13:27:09.272Z,63.07
2018-11-14T13:32:02.760Z,63.53
2018-11-14T13:36:56.792Z,64.07
2018-11-14T13:41:50.296Z,64.23
2018-11-14T13:46:43.908Z,63.93
2018-11-14T13:51:37.834Z,64.19
2018-11-14T13:56:31.568Z,64.28
2018-11-14T14:01:25.295Z,64.94
2018-11-14T14:06:18.785Z,64.78
2018-11-14T14:11:12.382Z,64.88
2018-11-14T14:16:06.108Z,65.43
2018-11-14T14:20:59.701Z,65.76
2018-11-14T14:25:53.308Z,65.98
2018-11-14T14:30:46.988Z,66.40
2018-11-14T14:35:40.600Z,67.25
2018-11-14T14:40:34.288Z,67.06
2018-11-14T14:45:27.867Z,66.54
2018-11-14T14:50:21.439Z,68.89
2018-11-14T14:55:20.402Z,66.80
2018-11-14T15:00:18.637Z,67.56
2018-11-14T15:05:13.029Z,68.90
2018-11-14T15:10:08.907Z,68.94
2018-11-14T15:15:02.520Z,67.81
2018-11-14T15:19:56.177Z,68.23
2018-11-14T15:24:49.681Z,68.06
2018-11-14T15:29:43.158Z,68.52
2018-11-14T15:34:36.777Z,68.92
2018-11-14T15:39:30.356Z,68.69
2018-11-14T15:44:23.811Z,68.44
2018-11-14T15:49:17.304Z,68.27
2018-11-14T15:54:10.853Z,68.66
2018-11-14T15:59:04.589Z,68.49
2018-11-14T16:03:58.411Z,68.98
2018-11-14T16:08:51.966Z,69.08
2018-11-14T16:13:50.805Z,69.15
2018-11-14T16:18:44.337Z,68.99
2018-11-14T16:23:37.853Z,68.85
2018-11-14T16:28:31.624Z,69.30
2018-11-14T16:33:26.326Z,69.10
2018-11-14T16:38:19.855Z,69.12
2018-11-14T16:43:14.462Z,69.85
2018-11-14T16:48:07.998Z,69.96
2018-11-14T16:53:01.426Z,71.20
2018-11-14T16:57:55.720Z,69.60
2018-11-14T17:02:49.435Z,70.04
2018-11-14T17:07:43.076Z,70.78
2018-11-14T17:12:36.519Z,70.33
2018-11-14T17:17:29.874Z,71.47
2018-11-14T17:22:23.932Z,72.00
2018-11-14T17:27:17.634Z,73.06
2018-11-14T17:32:11.504Z,75.38
2018-11-14T17:37:05.460Z,74.74
2018-11-14T17:42:00.614Z,75.00
2018-11-14T17:46:54.343Z,75.01
2018-11-14T17:51:48.057Z,74.69
2018-11-14T17:56:41.844Z,74.94
2018-11-14T18:01:35.555Z,75.61
2018-11-14T18:06:29.335Z,75.67
2018-11-14T18:11:22.825Z,75.20
2018-11-14T18:16:16.948Z,75.35
2018-11-14T18:21:10.551Z,75.30
2018-11-14T18:26:04.151Z,75.10
2018-11-14T18:30:57.872Z,74.55
2018-11-14T18:35:51.500Z,74.42
2018-11-14T18:40:45.380Z,74.58
2018-11-14T18:45:39.332Z,74.76
2018-11-14T18:50:34.551Z,74.74
2018-11-14T18:55:29.577Z,74.30
2018-11-14T19:00:31.207Z,74.14
2018-11-14T19:05:24.877Z,73.49
2018-11-14T19:10:19.946Z,72.39
2018-11-14T19:15:16.340Z,71.34
2018-11-14T19:20:12.635Z,70.37
2018-11-14T19:25:07.929Z,70.16
2018-11-14T19:30:01.452Z,70.84
2018-11-14T19:34:54.994Z,71.58
2018-11-14T19:39:48.510Z,72.55
2018-11-14T19:44:41.970Z,72.37
2018-11-14T19:49:35.455Z,72.65
2018-11-14T19:54:29.163Z,72.63
2018-11-14T19:59:22.848Z,71.69
2018-11-14T20:04:16.534Z,71.94
2018-11-14T20:09:10.878Z,71.68
2018-11-14T20:14:05.501Z,71.37
2018-11-14T20:18:59.394Z,71.73
2018-11-14T20:23:53.162Z,72.04
2018-11-14T20:28:46.799Z,71.91
2018-11-14T20:33:40.417Z,72.40
2018-11-14T20:38:34.137Z,72.42
2018-11-14T20:43:27.656Z,72.30
2018-11-14T20:48:21.050Z,72.69
2018-11-14T20:53:14.709Z,73.00
2018-11-14T20:58:08.295Z,73.07
2018-11-14T21:03:01.971Z,73.43
2018-11-14T21:07:55.837Z,73.48
2018-11-14T21:12:50.103Z,73.19
2018-11-14T21:17:44.069Z,72.50
2018-11-14T21:22:37.795Z,72.90
2018-11-14T21:27:31.339Z,73.19
2018-11-14T21:32:24.967Z,72.59
2018-11-14T21:37:18.582Z,72.04
2018-11-14T21:42:12.120Z,71.62
2018-11-14T21:47:05.615Z,71.59
2018-11-14T21:51:59.645Z,71.46
2018-11-14T21:56:53.163Z,70.85
2018-11-14T22:01:47.614Z,70.87
2018-11-14T22:06:41.161Z,69.98
2018-11-14T22:11:34.631Z,69.62
2018-11-14T22:16:28.177Z,69.86
2018-11-14T22:21:21.880Z,70.12
2018-11-14T22:26:15.500Z,70.03
2018-11-14T22:31:09.136Z,69.51
2018-11-14T22:36:02.774Z,69.73
2018-11-14T22:40:56.337Z,69.88
2018-11-14T22:45:49.844Z,69.58
2018-11-14T22:50:44.271Z,69.53
2018-11-14T22:55:37.753Z,69.47
2018-11-14T23:00:32.992Z,69.18
2018-11-14T23:05:26.700Z,68.54
2018-11-14T23:10:21.240Z,68.86
2018-11-14T23:15:14.678Z,69.40
2018-11-14T23:20:11.200Z,69.21
2018-11-14T23:25:05.147Z,68.71
2018-11-14T23:29:58.671Z,68.42
2018-11-14T23:34:57.572Z,69.46
2018-11-14T23:39:51.055Z,69.59
2018-11-14T23:44:44.529Z,69.51
2018-11-14T23:49:38.988Z,69.42
2018-11-14T23:54:32.434Z,69.61
2018-11-14T23:59:26.110Z,69.62
